createdAt,value
2022-07-30T00:01:34.089Z,96064.84
2022-07-30T00:08:37.996Z,96049.06
2022-07-30T00:15:41.542Z,96056.16
2022-07-30T00:22:43.763Z,96056.50
2022-07-30T00:29:45.950Z,96059.41
2022-07-30T00:36:50.033Z,96073.75
2022-07-30T00:43:52.363Z,96077.25
2022-07-30T00:50:54.564Z,96069.16
2022-07-30T00:57:58.147Z,96075.03
2022-07-30T01:05:00.677Z,96080.72
2022-07-30T01:12:02.982Z,96079.28
2022-07-30T01:19:28.575Z,96081.78
2022-07-30T01:26:32.155Z,96086.25
2022-07-30T01:33:35.108Z,96077.28
2022-07-30T01:40:37.668Z,96076.13
2022-07-30T01:47:41.305Z,96084.28
2022-07-30T01:54:43.870Z,96085.13
2022-07-30T02:01:47.068Z,96084.22
2022-07-30T02:08:52.355Z,96090.72
2022-07-30T02:15:57.803Z,96084.41
2022-07-30T02:23:03.237Z,96073.66
2022-07-30T02:30:08.081Z,96069.09
2022-07-30T02:37:12.320Z,96074.16
2022-07-30T02:44:17.887Z,96074.13
2022-07-30T02:51:24.098Z,96082.25
2022-07-30T02:58:26.320Z,96086.94
2022-07-30T03:05:28.547Z,96090.44
2022-07-30T03:12:32.789Z,96097.41
2022-07-30T03:19:37.314Z,96108.38
2022-07-30T03:26:39.680Z,96118.13
2022-07-30T03:33:45.939Z,96125.84
2022-07-30T03:40:49.796Z,96126.50
2022-07-30T03:47:52.811Z,96136.19
2022-07-30T03:54:56.987Z,96144.91
2022-07-30T04:02:18.423Z,96152.19
2022-07-30T04:09:41.154Z,96162.53
2022-07-30T04:17:04.255Z,96173.28
2022-07-30T04:24:07.144Z,96176.75
2022-07-30T04:31:09.430Z,96175.31
2022-07-30T04:38:14.340Z,96175.59
2022-07-30T04:45:20.215Z,96190.84
2022-07-30T04:52:35.188Z,96197.81
2022-07-30T04:59:40.714Z,96207.59
2022-07-30T05:06:43.228Z,96205.78
2022-07-30T05:13:48.357Z,96211.25
2022-07-30T05:20:55.686Z,96212.84
2022-07-30T05:28:02.549Z,96218.53
2022-07-30T05:35:05.777Z,96212.44
2022-07-30T05:42:09.443Z,96211.91
2022-07-30T05:49:27.447Z,96214.84
2022-07-30T05:56:37.640Z,96222.53
2022-07-30T06:03:48.745Z,96222.66
2022-07-30T06:11:17.061Z,96228.78
2022-07-30T06:18:19.726Z,96234.69
2022-07-30T06:25:28.836Z,96240.25
2022-07-30T06:32:31.392Z,96231.69
2022-07-30T06:39:57.446Z,96238.78
2022-07-30T06:46:57.226Z,96243.66
2022-07-30T06:54:01.367Z,96256.94
2022-07-30T07:01:26.391Z,96258.44
2022-07-30T07:08:31.863Z,96269.84
2022-07-30T07:15:36.815Z,96264.06
2022-07-30T07:22:42.842Z,96275.19
2022-07-30T07:30:01.683Z,96276.50
2022-07-30T07:37:09.073Z,96278.69
2022-07-30T07:44:12.020Z,96275.28
2022-07-30T07:51:15.585Z,96280.06
2022-07-30T07:58:40.511Z,96290.84
2022-07-30T08:06:01.039Z,96286.84
2022-07-30T08:13:49.000Z,96277.88
2022-07-30T08:21:22.009Z,96284.44
2022-07-30T08:28:35.831Z,96286.97
2022-07-30T08:35:41.640Z,96283.19
2022-07-30T08:42:55.274Z,96280.88
2022-07-30T08:50:04.273Z,96278.84
2022-07-30T08:57:08.777Z,96286.22
2022-07-30T09:04:14.282Z,96302.97
2022-07-30T09:11:17.954Z,96295.59
2022-07-30T09:18:28.517Z,96294.22
2022-07-30T09:25:35.669Z,96300.72
2022-07-30T09:33:01.808Z,96290.56
2022-07-30T09:40:26.977Z,96295.16
2022-07-30T09:48:20.651Z,96285.91
2022-07-30T09:55:30.559Z,96296.34
2022-07-30T10:02:33.641Z,96288.81
2022-07-30T10:09:55.947Z,96290.25
2022-07-30T10:16:58.552Z,96286.53
2022-07-30T10:24:01.367Z,96291.88
2022-07-30T10:31:49.062Z,96288.59
2022-07-30T10:38:56.974Z,96283.19
2022-07-30T10:46:02.741Z,96288.13
2022-07-30T10:53:08.579Z,96281.91
2022-07-30T11:00:15.584Z,96265.66
2022-07-30T11:07:31.279Z,96272.28
2022-07-30T11:15:07.132Z,96278.56
2022-07-30T11:22:25.530Z,96278.78
2022-07-30T11:29:50.734Z,96284.06
2022-07-30T11:37:18.353Z,96271.53
2022-07-30T11:44:28.483Z,96264.97
2022-07-30T11:51:39.909Z,96274.25
2022-07-30T11:58:44.732Z,96268.28
2022-07-30T12:05:51.248Z,96259.91
2022-07-30T12:13:10.002Z,96256.84
2022-07-30T12:20:17.723Z,96248.97
2022-07-30T12:27:19.936Z,96255.69
2022-07-30T12:34:23.009Z,96260.50
2022-07-30T12:48:54.556Z,96250.91
2022-07-30T12:56:10.526Z,96234.75
2022-07-30T13:03:19.980Z,96229.50
2022-07-30T13:10:28.555Z,96228.78
2022-07-30T13:17:37.676Z,96221.31
2022-07-30T13:24:40.483Z,96210.28
2022-07-30T13:31:44.345Z,96212.97
2022-07-30T13:38:52.359Z,96210.88
2022-07-30T13:45:55.396Z,96205.22
2022-07-30T13:53:03.876Z,96194.22
2022-07-30T14:00:07.736Z,96188.59
2022-07-30T14:07:10.603Z,96182.41
2022-07-30T14:14:14.133Z,96174.63
2022-07-30T14:21:16.328Z,96182.16
2022-07-30T14:28:18.533Z,96174.34
2022-07-30T14:35:22.067Z,96166.91
2022-07-30T14:42:25.524Z,96175.19
2022-07-30T14:49:28.007Z,96168.72
2022-07-30T14:56:31.715Z,96176.00
2022-07-30T15:03:34.558Z,96173.25
2022-07-30T15:10:39.394Z,96168.16
2022-07-30T15:17:44.541Z,96173.25
2022-07-30T15:24:46.873Z,96167.13
2022-07-30T15:31:49.081Z,96163.91
2022-07-30T15:38:52.662Z,96174.59
2022-07-30T15:45:56.496Z,96168.16
2022-07-30T15:52:59.478Z,96169.50
2022-07-30T16:00:03.833Z,96158.53
2022-07-30T16:07:14.444Z,96161.44
2022-07-30T16:14:16.946Z,96155.53
2022-07-30T16:21:22.717Z,96159.34
2022-07-30T16:28:27.206Z,96155.31
2022-07-30T16:35:31.386Z,96163.88
2022-07-30T16:42:37.644Z,96150.06
2022-07-30T16:49:40.282Z,96159.63
2022-07-30T16:56:42.805Z,96158.94
2022-07-30T17:03:49.417Z,96154.69
2022-07-30T17:10:52.036Z,96161.66
2022-07-30T17:17:56.423Z,96156.50
2022-07-30T17:25:02.326Z,96159.16
2022-07-30T17:32:05.666Z,96169.00
2022-07-30T17:39:08.278Z,96173.56
2022-07-30T17:46:22.344Z,96166.50
2022-07-30T17:53:24.571Z,96181.16
2022-07-30T18:00:27.265Z,96186.69
2022-07-30T18:07:31.460Z,96191.00
2022-07-30T18:14:34.325Z,96200.44
2022-07-30T18:21:38.613Z,96207.44
2022-07-30T18:28:43.342Z,96209.94
2022-07-30T18:35:45.608Z,96209.47
2022-07-30T18:42:50.047Z,96214.31
2022-07-30T18:49:55.401Z,96229.47
2022-07-30T18:56:57.962Z,96233.19
2022-07-30T19:04:00.576Z,96240.75
2022-07-30T19:11:04.405Z,96243.81
2022-07-30T19:18:06.691Z,96246.41
2022-07-30T19:25:09.863Z,96262.09
2022-07-30T19:32:19.606Z,96271.75
2022-07-30T19:39:22.248Z,96281.16
2022-07-30T19:46:25.001Z,96277.34
2022-07-30T19:53:31.122Z,96285.09
2022-07-30T20:00:35.750Z,96286.28
2022-07-30T20:07:38.745Z,96294.50
2022-07-30T20:14:43.339Z,96301.09
2022-07-30T20:21:57.543Z,96294.88
2022-07-30T20:29:00.096Z,96297.66
2022-07-30T20:36:09.747Z,96292.69
2022-07-30T20:43:12.535Z,96297.41
2022-07-30T20:50:14.822Z,96299.84
2022-07-30T20:57:20.232Z,96289.34
2022-07-30T21:04:41.587Z,96295.94
2022-07-30T21:11:50.581Z,96301.94
2022-07-30T21:18:57.102Z,96299.88
2022-07-30T21:26:05.811Z,96306.31
2022-07-30T21:33:12.838Z,96305.69
2022-07-30T21:40:19.046Z,96316.13
2022-07-30T21:47:27.053Z,96320.94
2022-07-30T21:54:34.953Z,96326.59
2022-07-30T22:01:49.531Z,96320.06
2022-07-30T22:08:52.313Z,96335.09
2022-07-30T22:15:56.461Z,96330.81
2022-07-30T22:23:02.287Z,96331.84
2022-07-30T22:30:08.024Z,96332.63
2022-07-30T22:44:34.477Z,96338.84
2022-07-30T22:52:01.936Z,96330.56
2022-07-30T22:58:59.111Z,96331.97
2022-07-30T23:06:03.164Z,96325.59
2022-07-30T23:12:32.352Z,96335.84
2022-07-30T23:20:13.185Z,96325.03
2022-07-30T23:27:18.155Z,96318.72
2022-07-30T23:34:24.281Z,96313.25
2022-07-30T23:41:29.842Z,96311.38
2022-07-30T23:48:34.331Z,96309.75
2022-07-30T23:55:38.023Z,96311.84
